Time;durP1;ratioP1;P1;durP2;ratioP2;P2;SDS_P1;SDS_P2;PMS_P1;PMS_P2;Temp;Humidity;BMP_temperature;BMP_pressure;BME280_temperature;BME280_humidity;BME280_pressure;Samples;Min_cycle;Max_cycle;Signal;HPM_P1;HPM_P2
2022/06/29 00:01:58;;;;;;;;;;;;;;;18.58;63.73;101596.28;5073709;28;19949;-37
2022/06/29 00:04:23;;;;;;;;;;;;;;;18.53;63.84;101595.16;5073821;28;20341;-37
2022/06/29 00:06:48;;;;;;;;;;;;;;;18.49;64.24;101590.47;5073537;28;19912;-37
2022/06/29 00:09:13;;;;;;;;;;;;;;;18.44;63.91;101602.22;5073458;28;19912;-37
2022/06/29 00:11:38;;;;;;;;;;;;;;;18.43;64.71;101599.75;5073825;28;19966;-37
2022/06/29 00:14:04;;;;;;;;;;;;;;;18.39;64.18;101596.72;5073533;28;19948;-37
2022/06/29 00:16:29;;;;;;;;;;;;;;;18.37;64.15;101595.34;5073527;28;20011;-37
2022/06/29 00:18:55;;;;;;;;;;;;;;;18.25;65.17;101595.53;5073345;28;19919;-37
2022/06/29 00:21:20;;;;;;;;;;;;;;;18.20;65.50;101599.09;5073786;28;19912;-37
2022/06/29 00:23:45;;;;;;;;;;;;;;;18.15;65.77;101592.72;5073538;28;19912;-37
2022/06/29 00:26:10;;;;;;;;;;;;;;;18.11;65.65;101595.19;5073634;28;19959;-37
2022/06/29 00:28:35;;;;;;;;;;;;;;;18.10;64.81;101593.50;5073075;28;19955;-37
2022/06/29 00:31:01;;;;;;;;;;;;;;;18.08;65.29;101590.22;5073226;28;19924;-37
2022/06/29 00:33:26;;;;;;;;;;;;;;;18.03;65.56;101590.19;5073306;28;19913;-37
2022/06/29 00:35:51;;;;;;;;;;;;;;;17.99;65.10;101586.31;5073488;28;20429;-37
2022/06/29 00:38:16;;;;;;;;;;;;;;;17.98;64.80;101584.69;5073232;28;19957;-37
2022/06/29 00:40:42;;;;;;;;;;;;;;;17.96;64.81;101582.22;5073551;28;19916;-37
2022/06/29 00:43:07;;;;;;;;;;;;;;;17.94;64.91;101578.09;5073240;28;19912;-37
2022/06/29 00:45:32;;;;;;;;;;;;;;;17.93;64.99;101581.91;5073524;28;19928;-37
2022/06/29 00:47:58;;;;;;;;;;;;;;;17.90;65.60;101572.31;5073957;28;19991;-37
2022/06/29 00:50:28;;;;;;;;;;;;;;;17.87;66.25;101581.06;5072729;28;19918;-37
2022/06/29 00:52:53;;;;;;;;;;;;;;;17.83;65.69;101573.63;5072837;28;20280;-37
2022/06/29 00:55:20;;;;;;;;;;;;;;;17.82;65.58;101569.25;5072993;28;19919;-37
2022/06/29 00:57:48;;;;;;;;;;;;;;;17.80;65.54;101577.69;5073158;28;19912;-37
2022/06/29 01:00:14;;;;;;;;;;;;;;;17.75;66.80;101569.44;5072984;28;19912;-37
2022/06/29 01:02:39;;;;;;;;;;;;;;;17.72;65.87;101578.16;5073291;28;19919;-37
2022/06/29 01:05:05;;;;;;;;;;;;;;;17.63;66.32;101560.56;5072491;28;19916;-37
2022/06/29 01:07:31;;;;;;;;;;;;;;;17.60;66.02;101558.34;5072936;28;19920;-37
2022/06/29 01:09:56;;;;;;;;;;;;;;;17.61;66.02;101557.25;5073309;28;19920;-37
2022/06/29 01:12:22;;;;;;;;;;;;;;;17.59;65.89;101553.97;5073141;28;19916;-37
2022/06/29 01:14:48;;;;;;;;;;;;;;;17.57;65.76;101556.13;5073104;28;19935;-37
2022/06/29 01:17:13;;;;;;;;;;;;;;;17.52;66.17;101559.66;5073120;28;19913;-37
2022/06/29 01:19:39;;;;;;;;;;;;;;;17.53;65.65;101563.22;5073548;28;19958;-37
2022/06/29 01:22:12;;;;;;;;;;;;;;;17.50;65.89;101564.56;5072863;28;19999;-37
2022/06/29 01:24:38;;;;;;;;;;;;;;;17.49;65.62;101565.66;5073004;28;19913;-37
2022/06/29 01:27:03;;;;;;;;;;;;;;;17.48;65.77;101569.47;5073364;28;19916;-37
2022/06/29 01:29:29;;;;;;;;;;;;;;;17.44;65.77;101551.94;5072687;28;19963;-37
2022/06/29 01:31:54;;;;;;;;;;;;;;;17.41;65.81;101557.91;5073235;28;19912;-37
2022/06/29 01:34:20;;;;;;;;;;;;;;;17.38;66.12;101553.81;5072645;28;19920;-37
2022/06/29 01:36:45;;;;;;;;;;;;;;;17.35;66.13;101551.56;5074744;28;19913;-37
2022/06/29 01:39:10;;;;;;;;;;;;;;;17.32;65.76;101548.53;5076213;28;19959;-37
2022/06/29 01:41:35;;;;;;;;;;;;;;;17.29;66.14;101538.13;5076275;28;19913;-37
2022/06/29 01:44:00;;;;;;;;;;;;;;;17.26;66.30;101550.38;5075932;28;19963;-36
2022/06/29 01:46:26;;;;;;;;;;;;;;;17.21;66.53;101545.69;5076213;28;19912;-37
2022/06/29 01:48:51;;;;;;;;;;;;;;;17.18;66.53;101545.41;5076074;28;20429;-37
2022/06/29 01:51:16;;;;;;;;;;;;;;;17.14;66.25;101544.28;5076225;28;19958;-37
2022/06/29 01:53:41;;;;;;;;;;;;;;;17.13;66.53;101546.19;5075696;28;20303;-37
2022/06/29 01:56:07;;;;;;;;;;;;;;;17.11;66.34;101542.03;5075748;28;20304;-36
2022/06/29 01:58:32;;;;;;;;;;;;;;;17.08;66.36;101543.41;5075773;28;20061;-37
2022/06/29 02:00:57;;;;;;;;;;;;;;;17.07;66.82;101538.16;5076596;28;19913;-36
2022/06/29 02:03:22;;;;;;;;;;;;;;;17.05;67.29;101534.88;5075628;28;19963;-36
2022/06/29 02:05:47;;;;;;;;;;;;;;;16.99;66.95;101532.09;5076701;28;19948;-36
2022/06/29 02:08:13;;;;;;;;;;;;;;;16.98;67.23;101530.44;5075832;28;20357;-36
2022/06/29 02:10:38;;;;;;;;;;;;;;;16.97;67.35;101527.97;5075635;28;19913;-36
2022/06/29 02:13:03;;;;;;;;;;;;;;;16.93;67.00;101529.53;5075374;28;19913;-36
2022/06/29 02:15:29;;;;;;;;;;;;;;;16.91;67.10;101532.53;5075563;28;19912;-37
2022/06/29 02:17:54;;;;;;;;;;;;;;;16.89;67.45;101536.63;5076333;28;19966;-36
2022/06/29 02:20:19;;;;;;;;;;;;;;;16.88;67.43;101538.50;5075569;28;19920;-37
2022/06/29 02:22:45;;;;;;;;;;;;;;;16.85;67.25;101538.22;5074844;28;20341;-37
2022/06/29 02:25:10;;;;;;;;;;;;;;;16.84;67.28;101539.31;5075199;28;20379;-37
2022/06/29 02:27:39;;;;;;;;;;;;;;;16.82;67.40;101539.53;5075940;28;19995;-38
2022/06/29 02:30:05;;;;;;;;;;;;;;;16.83;67.38;101532.16;5074972;28;19913;-37
2022/06/29 02:35:14;;;;;;;;;;;;;;;16.79;67.69;101531.88;5075657;28;19946;-37
2022/06/29 02:37:39;;;;;;;;;;;;;;;16.81;67.90;101535.16;5074980;28;20318;-46
2022/06/29 02:40:05;;;;;;;;;;;;;;;16.81;67.96;101528.88;5075262;28;20038;-37
2022/06/29 02:42:30;;;;;;;;;;;;;;;16.83;67.66;101529.44;5075854;28;20034;-41
2022/06/29 02:44:55;;;;;;;;;;;;;;;16.83;67.85;101522.06;5075073;28;20202;-37
2022/06/29 02:47:20;;;;;;;;;;;;;;;16.84;67.90;101529.19;5074667;28;19916;-37
2022/06/29 02:49:46;;;;;;;;;;;;;;;16.82;67.63;101525.06;5074204;28;19913;-37
2022/06/29 02:52:11;;;;;;;;;;;;;;;16.84;67.77;101525.66;5075433;28;19916;-37
2022/06/29 02:54:36;;;;;;;;;;;;;;;16.83;67.91;101518.50;5075174;28;19919;-37
2022/06/29 02:57:01;;;;;;;;;;;;;;;16.81;67.93;101516.03;5074610;28;20442;-37
2022/06/29 02:59:27;;;;;;;;;;;;;;;16.80;68.35;101514.41;5075001;28;19920;-37
2022/06/29 03:01:52;;;;;;;;;;;;;;;16.77;68.29;101514.09;5074465;28;19916;-37
2022/06/29 03:04:17;;;;;;;;;;;;;;;16.74;68.01;101518.16;5075322;28;19916;-37
2022/06/29 03:06:42;;;;;;;;;;;;;;;16.73;68.14;101513.75;5075469;28;19958;-37
2022/06/29 03:09:08;;;;;;;;;;;;;;;16.70;68.66;101512.34;5074548;28;19957;-37
2022/06/29 03:11:34;;;;;;;;;;;;;;;16.69;68.29;101505.25;5074568;28;19912;-36
2022/06/29 03:13:59;;;;;;;;;;;;;;;16.68;68.77;101503.56;5074191;28;20070;-37
2022/06/29 03:16:24;;;;;;;;;;;;;;;16.67;68.71;101499.19;5074981;28;19912;-37
2022/06/29 03:18:50;;;;;;;;;;;;;;;16.66;68.79;101499.47;5074661;28;19913;-37
2022/06/29 03:21:15;;;;;;;;;;;;;;;16.64;68.97;101505.19;5074056;28;20005;-37
2022/06/29 03:23:40;;;;;;;;;;;;;;;16.61;68.96;101492.03;5074535;28;19989;-37
2022/06/29 03:26:06;;;;;;;;;;;;;;;16.60;68.63;101495.84;5074810;28;19912;-37
2022/06/29 03:28:31;;;;;;;;;;;;;;;16.61;68.96;101488.47;5074226;28;20275;-37
2022/06/29 03:30:56;;;;;;;;;;;;;;;16.59;68.69;101491.47;5074066;28;19966;-37
2022/06/29 03:33:21;;;;;;;;;;;;;;;16.60;69.14;101489.56;5106472;28;19920;-36
2022/06/29 03:35:47;;;;;;;;;;;;;;;16.57;69.13;101490.06;5074071;28;19919;-36
2022/06/29 03:38:12;;;;;;;;;;;;;;;16.55;69.12;101479.41;5074976;28;20352;-37
2022/06/29 03:40:37;;;;;;;;;;;;;;;16.54;69.21;101477.75;5074282;28;20367;-37
2022/06/29 03:43:03;;;;;;;;;;;;;;;16.54;69.16;101471.47;5074746;28;19912;-37
2022/06/29 03:45:28;;;;;;;;;;;;;;;16.50;69.53;101470.34;5074166;28;19912;-37
2022/06/29 03:47:53;;;;;;;;;;;;;;;16.47;70.50;101468.94;5074177;28;19920;-36
2022/06/29 03:50:18;;;;;;;;;;;;;;;16.44;69.91;101472.97;5073779;28;19920;-36
2022/06/29 03:52:44;;;;;;;;;;;;;;;16.41;70.57;101467.22;5074074;28;19912;-36
2022/06/29 03:55:09;;;;;;;;;;;;;;;16.36;70.44;101470.72;5073504;28;19913;-36
2022/06/29 03:57:34;;;;;;;;;;;;;;;16.33;70.35;101471.22;5073970;28;20348;-36
2022/06/29 04:00:00;;;;;;;;;;;;;;;16.32;70.49;101471.47;5073365;28;20295;-37
2022/06/29 04:02:25;;;;;;;;;;;;;;;16.30;70.59;101470.88;5074178;28;19912;-36
2022/06/29 04:04:51;;;;;;;;;;;;;;;16.30;70.72;101469.00;5073916;28;20102;-36
2022/06/29 04:07:16;;;;;;;;;;;;;;;16.28;71.36;101473.06;5073664;28;19951;-37
2022/06/29 04:09:42;;;;;;;;;;;;;;;16.22;72.10;101464.81;5073238;28;19916;-37
2022/06/29 04:12:07;;;;;;;;;;;;;;;16.19;71.61;101468.03;5073576;28;19912;-36
2022/06/29 04:14:32;;;;;;;;;;;;;;;16.19;71.44;101468.03;5073521;28;19966;-36
2022/06/29 04:16:58;;;;;;;;;;;;;;;16.19;71.38;101467.22;5074276;28;19913;-36
2022/06/29 04:19:23;;;;;;;;;;;;;;;16.20;71.96;101469.72;5073140;28;19912;-36
2022/06/29 04:21:49;;;;;;;;;;;;;;;16.20;71.76;101471.59;5073950;28;19912;-36
2022/06/29 04:24:15;;;;;;;;;;;;;;;16.20;72.12;101471.59;5073197;28;19923;-36
2022/06/29 04:26:40;;;;;;;;;;;;;;;16.19;73.90;101465.31;5074155;28;19951;-36
2022/06/29 04:29:06;;;;;;;;;;;;;;;16.20;73.38;101469.72;5073341;28;20356;-36
2022/06/29 04:31:31;;;;;;;;;;;;;;;16.20;74.44;101471.59;5073347;28;19912;-37
2022/06/29 04:33:56;;;;;;;;;;;;;;;16.16;75.46;101465.84;5072354;28;19924;-37
2022/06/29 04:36:21;;;;;;;;;;;;;;;16.20;74.61;101457.94;5073389;28;19962;-37
2022/06/29 04:38:47;;;;;;;;;;;;;;;16.21;74.83;101448.69;5073562;28;19920;-37
2022/06/29 04:41:12;;;;;;;;;;;;;;;16.25;74.78;101451.72;5073546;28;19977;-37
2022/06/29 04:43:38;;;;;;;;;;;;;;;16.30;74.33;101449.91;5072949;28;19964;-37
2022/06/29 04:46:21;;;;;;;;;;;;;;;16.36;75.04;101458.97;5073756;28;19919;-36
2022/06/29 04:48:49;;;;;;;;;;;;;;;16.45;74.17;101454.72;5073891;28;20007;-36
2022/06/29 04:51:17;;;;;;;;;;;;;;;16.52;75.08;101455.34;5073180;28;19913;-37
2022/06/29 04:53:46;;;;;;;;;;;;;;;16.61;73.65;101462.00;5073112;28;19923;-37
2022/06/29 04:56:12;;;;;;;;;;;;;;;16.72;74.32;101455.59;5072850;28;19939;-37
2022/06/29 04:58:37;;;;;;;;;;;;;;;16.82;74.13;101462.25;5072764;28;19920;-37
2022/06/29 05:01:03;;;;;;;;;;;;;;;16.92;73.12;101463.16;5072995;28;19919;-37
2022/06/29 05:03:28;;;;;;;;;;;;;;;17.10;72.58;101448.31;5073200;28;19923;-37
2022/06/29 05:05:53;;;;;;;;;;;;;;;17.29;72.37;101450.66;5073200;28;20360;-37
2022/06/29 05:08:18;;;;;;;;;;;;;;;17.43;72.39;101449.13;5073487;28;19917;-37
2022/06/29 05:10:43;;;;;;;;;;;;;;;17.57;72.07;101455.81;5073244;28;20015;-37
2022/06/29 05:13:10;;;;;;;;;;;;;;;17.65;71.89;101444.34;5076826;28;19923;-37
2022/06/29 05:15:36;;;;;;;;;;;;;;;17.73;71.99;101454.00;5077041;28;20277;-36
2022/06/29 05:18:01;;;;;;;;;;;;;;;17.77;71.51;101444.19;5076845;28;19927;-37
2022/06/29 05:20:27;;;;;;;;;;;;;;;17.82;71.62;101444.22;5076614;28;19919;-37
2022/06/29 05:22:52;;;;;;;;;;;;;;;17.92;71.07;101438.00;5076559;28;20266;-37
2022/06/29 05:25:17;;;;;;;;;;;;;;;18.01;71.34;101437.22;5076263;28;20428;-37
2022/06/29 05:27:42;;;;;;;;;;;;;;;18.09;70.97;101438.59;5077306;28;19912;-37
2022/06/29 05:30:08;;;;;;;;;;;;;;;18.17;70.70;101427.16;5076117;28;19913;-37
2022/06/29 05:32:35;;;;;;;;;;;;;;;18.27;70.29;101429.09;5076465;28;20273;-37
2022/06/29 05:35:00;;;;;;;;;;;;;;;18.34;70.28;101428.84;5076390;28;19916;-36
2022/06/29 05:37:26;;;;;;;;;;;;;;;18.40;69.89;101436.00;5077159;28;19989;-37
2022/06/29 05:39:51;;;;;;;;;;;;;;;18.45;69.76;101425.88;5075297;28;20311;-37
2022/06/29 05:42:16;;;;;;;;;;;;;;;18.48;69.64;101428.06;5076547;28;19999;-36
2022/06/29 05:44:41;;;;;;;;;;;;;;;18.57;69.34;101422.91;5075871;28;20011;-37
2022/06/29 05:47:07;;;;;;;;;;;;;;;18.66;69.47;101426.75;5076435;28;19952;-37
2022/06/29 05:49:33;;;;;;;;;;;;;;;18.78;69.23;101423.78;5075465;28;20333;-37
2022/06/29 05:51:58;;;;;;;;;;;;;;;18.89;68.82;101427.38;5076037;28;19926;-37
2022/06/29 05:54:23;;;;;;;;;;;;;;;18.98;68.44;101420.25;5075996;28;19970;-37
2022/06/29 05:56:49;;;;;;;;;;;;;;;19.06;68.32;101427.94;5076922;28;19912;-37
2022/06/29 05:59:14;;;;;;;;;;;;;;;19.13;68.44;101425.75;5076396;28;20361;-36
2022/06/29 06:01:39;;;;;;;;;;;;;;;19.18;68.24;101438.59;5075689;28;19918;-37
2022/06/29 06:04:04;;;;;;;;;;;;;;;19.22;68.20;101434.22;5076006;28;19923;-37
2022/06/29 06:06:30;;;;;;;;;;;;;;;19.28;68.05;101431.22;5076329;28;19912;-37
2022/06/29 06:08:55;;;;;;;;;;;;;;;19.38;67.97;101437.81;5075774;28;19914;-37
2022/06/29 06:11:20;;;;;;;;;;;;;;;19.46;68.03;101431.75;5075329;28;19919;-37
2022/06/29 06:13:45;;;;;;;;;;;;;;;19.53;67.93;101433.13;5076160;28;19912;-37
2022/06/29 06:16:11;;;;;;;;;;;;;;;19.64;67.76;101425.72;5075735;28;19912;-37
2022/06/29 06:18:36;;;;;;;;;;;;;;;19.73;67.61;101424.06;5075996;28;19916;-36
2022/06/29 06:21:02;;;;;;;;;;;;;;;19.82;67.37;101418.00;5075595;28;19939;-36
2022/06/29 06:23:27;;;;;;;;;;;;;;;19.89;67.28;101432.25;5075753;28;19912;-37
2022/06/29 06:25:52;;;;;;;;;;;;;;;19.95;67.11;101420.97;5076021;28;19912;-37
2022/06/29 06:28:17;;;;;;;;;;;;;;;19.95;66.90;101431.13;5075930;28;19912;-37
2022/06/29 06:30:43;;;;;;;;;;;;;;;19.95;66.56;101426.44;5075770;28;19939;-37
2022/06/29 06:33:08;;;;;;;;;;;;;;;20.01;66.73;101416.28;5073697;28;20383;-37
2022/06/29 06:35:33;;;;;;;;;;;;;;;20.08;66.25;101418.72;5075293;28;19985;-37
2022/06/29 06:37:58;;;;;;;;;;;;;;;20.11;66.50;101418.19;5075544;28;19965;-37
2022/06/29 06:43:08;;;;;;;;;;;;;;;20.24;66.77;101425.78;5075514;28;19963;-37
2022/06/29 06:45:33;;;;;;;;;;;;;;;20.28;66.17;101422.19;5075497;28;19982;-37
2022/06/29 06:47:58;;;;;;;;;;;;;;;20.30;65.66;101428.25;5075338;28;20372;-37
2022/06/29 06:50:23;;;;;;;;;;;;;;;20.29;65.81;101423.00;5075620;28;19912;-37
2022/06/29 06:52:48;;;;;;;;;;;;;;;20.33;65.85;101422.16;5075003;28;19912;-37
2022/06/29 06:55:14;;;;;;;;;;;;;;;20.38;65.61;101426.00;5075142;28;19965;-37
2022/06/29 06:57:39;;;;;;;;;;;;;;;20.41;65.89;101428.19;5074719;28;20317;-37
2022/06/29 07:00:05;;;;;;;;;;;;;;;20.45;66.05;101426.53;5074759;28;19912;-37
2022/06/29 07:02:30;;;;;;;;;;;;;;;20.49;66.04;101425.69;5075339;28;20003;-37
2022/06/29 07:04:55;;;;;;;;;;;;;;;20.53;65.84;101428.69;5075461;28;20348;-37
2022/06/29 07:07:21;;;;;;;;;;;;;;;20.56;66.06;101426.22;5075161;28;19916;-37
2022/06/29 07:09:46;;;;;;;;;;;;;;;20.61;65.89;101430.03;5074585;28;19912;-42
2022/06/29 07:12:11;;;;;;;;;;;;;;;20.67;65.87;101423.41;5074919;28;19916;-37
2022/06/29 07:14:36;;;;;;;;;;;;;;;20.71;66.38;101429.97;5074836;28;20277;-37
2022/06/29 07:17:02;;;;;;;;;;;;;;;20.76;66.83;101427.19;5074756;28;19967;-37
2022/06/29 07:19:27;;;;;;;;;;;;;;;20.79;66.43;101424.69;5074365;28;19919;-37
2022/06/29 07:21:52;;;;;;;;;;;;;;;20.82;66.58;101426.03;5074741;28;19913;-37
2022/06/29 07:24:17;;;;;;;;;;;;;;;20.83;66.44;101428.50;5074056;28;19917;-37
2022/06/29 07:26:43;;;;;;;;;;;;;;;20.80;66.42;101426.34;5075115;28;19952;-37
2022/06/29 07:29:08;;;;;;;;;;;;;;;20.75;66.42;101431.03;5074555;28;19916;-35
2022/06/29 07:31:33;;;;;;;;;;;;;;;20.68;66.93;101423.09;5073153;28;19942;-36
2022/06/29 07:33:58;;;;;;;;;;;;;;;20.65;66.79;101429.19;5073317;28;19912;-36
2022/06/29 07:36:25;;;;;;;;;;;;;;;20.65;66.59;101423.69;5074128;28;20002;-36
2022/06/29 07:38:51;;;;;;;;;;;;;;;20.70;66.47;101417.34;5074304;28;19912;-36
2022/06/29 07:41:16;;;;;;;;;;;;;;;20.74;66.36;101426.63;5074884;28;20013;-36
2022/06/29 07:43:41;;;;;;;;;;;;;;;20.73;66.83;101427.75;5073965;28;20022;-36
2022/06/29 07:46:08;;;;;;;;;;;;;;;20.80;66.97;101422.75;5074518;28;19947;-36
2022/06/29 07:48:34;;;;;;;;;;;;;;;20.94;67.15;101414.69;5074375;28;19951;-36
2022/06/29 07:50:59;;;;;;;;;;;;;;;21.06;66.25;101413.19;5073875;28;20373;-37
2022/06/29 07:53:24;;;;;;;;;;;;;;;21.19;65.82;101411.72;5074166;28;19944;-37
2022/06/29 07:55:49;;;;;;;;;;;;;;;21.37;66.25;101415.72;5074125;28;19912;-37
2022/06/29 07:58:15;;;;;;;;;;;;;;;21.53;65.81;101414.47;5074536;28;19971;-37
2022/06/29 08:00:41;;;;;;;;;;;;;;;21.68;64.84;101413.47;5073730;28;19967;-37
2022/06/29 08:03:06;;;;;;;;;;;;;;;21.80;64.37;101410.31;5073539;28;20021;-37
2022/06/29 08:05:32;;;;;;;;;;;;;;;21.89;62.02;101407.75;5074218;28;20294;-37
2022/06/29 08:07:57;;;;;;;;;;;;;;;22.00;63.68;101409.25;5074194;28;19912;-37
2022/06/29 08:10:23;;;;;;;;;;;;;;;22.02;62.37;101402.34;5073704;28;19912;-37
2022/06/29 08:12:48;;;;;;;;;;;;;;;22.13;62.34;101407.75;5074505;28;19947;-37
2022/06/29 08:15:15;;;;;;;;;;;;;;;22.17;61.38;101404.13;5074085;28;19912;-37
2022/06/29 08:17:41;;;;;;;;;;;;;;;22.19;59.78;101399.13;5073793;28;19920;-37
2022/06/29 08:20:06;;;;;;;;;;;;;;;22.30;60.14;101397.91;5073733;28;20337;-37
2022/06/29 08:22:32;;;;;;;;;;;;;;;22.44;62.04;101399.88;5073699;28;20389;-37
2022/06/29 08:24:57;;;;;;;;;;;;;;;22.55;61.21;101395.91;5074157;28;19912;-37
2022/06/29 08:27:22;;;;;;;;;;;;;;;22.67;61.68;101398.19;5073196;28;20301;-37
2022/06/29 08:29:48;;;;;;;;;;;;;;;22.80;58.39;101398.25;5074092;28;19916;-37
2022/06/29 08:32:13;;;;;;;;;;;;;;;22.87;58.94;101398.69;5073387;28;19912;-37
2022/06/29 08:34:41;;;;;;;;;;;;;;;22.97;57.12;101399.66;5073188;28;19939;-37
2022/06/29 08:37:07;;;;;;;;;;;;;;;23.07;59.32;101393.97;5073015;28;20364;-37
2022/06/29 08:39:32;;;;;;;;;;;;;;;23.19;58.52;101393.53;5073228;28;19935;-37
2022/06/29 08:42:00;;;;;;;;;;;;;;;23.29;58.35;101385.06;5073241;28;19935;-37
2022/06/29 08:44:25;;;;;;;;;;;;;;;23.43;58.88;101379.56;5073149;28;20280;-37
2022/06/29 08:46:50;;;;;;;;;;;;;;;23.56;57.83;101384.25;5075723;28;19912;-37
2022/06/29 08:49:16;;;;;;;;;;;;;;;23.71;57.95;101384.00;5076964;28;20007;-37
2022/06/29 08:51:43;;;;;;;;;;;;;;;23.88;57.68;101381.44;5076686;28;19940;-37
2022/06/29 08:54:09;;;;;;;;;;;;;;;24.02;57.49;101377.88;5077709;28;19912;-37
2022/06/29 08:56:34;;;;;;;;;;;;;;;24.14;57.24;101378.16;5077151;28;19999;-37
2022/06/29 08:59:01;;;;;;;;;;;;;;;24.24;52.86;101375.16;5077346;28;19927;-37
2022/06/29 09:01:27;;;;;;;;;;;;;;;24.33;55.63;101380.78;5077438;28;20276;-37
2022/06/29 09:03:53;;;;;;;;;;;;;;;24.35;56.08;101379.34;5077392;28;19920;-37
2022/06/29 09:06:18;;;;;;;;;;;;;;;24.40;55.58;101373.72;5077024;28;20327;-37
2022/06/29 09:08:43;;;;;;;;;;;;;;;24.52;54.21;101369.59;5076876;28;19965;-37
2022/06/29 09:11:21;;;;;;;;;;;;;;;24.46;52.72;101371.66;5077544;28;20006;-37
2022/06/29 09:13:46;;;;;;;;;;;;;;;24.33;52.80;101366.94;5077046;28;19947;-37
2022/06/29 09:16:11;;;;;;;;;;;;;;;24.27;55.31;101371.78;5076758;28;19959;-37
2022/06/29 09:18:37;;;;;;;;;;;;;;;24.29;55.10;101374.22;5076488;28;19913;-37
2022/06/29 09:21:04;;;;;;;;;;;;;;;24.40;56.14;101375.66;5077138;28;20029;-37
2022/06/29 09:23:30;;;;;;;;;;;;;;;24.49;56.11;101376.56;5109524;28;20275;-38
2022/06/29 09:25:55;;;;;;;;;;;;;;;24.54;55.85;101381.97;5077454;28;19913;-37
2022/06/29 09:28:21;;;;;;;;;;;;;;;24.70;55.87;101376.09;5076250;28;19912;-37
2022/06/29 09:30:46;;;;;;;;;;;;;;;24.96;54.07;101376.28;5076723;28;19913;-37
2022/06/29 09:33:12;;;;;;;;;;;;;;;25.07;53.85;101372.13;5076447;28;20281;-37
2022/06/29 09:35:38;;;;;;;;;;;;;;;25.17;50.65;101377.41;5076560;28;19938;-37
2022/06/29 09:38:23;;;;;;;;;;;;;;;25.25;53.27;101375.84;5077080;28;19912;-37
2022/06/29 09:40:58;;;;;;;;;;;;;;;25.13;54.10;101376.41;5075984;28;20007;-37
2022/06/29 09:43:23;;;;;;;;;;;;;;;25.16;53.23;101373.81;5076234;28;19912;-37
2022/06/29 09:45:51;;;;;;;;;;;;;;;25.29;53.27;101374.88;5075939;28;20015;-37
2022/06/29 09:48:16;;;;;;;;;;;;;;;25.43;52.00;101375.59;5076884;28;19923;-37
2022/06/29 09:50:42;;;;;;;;;;;;;;;25.60;49.50;101372.09;5076283;28;19916;-37
2022/06/29 09:53:08;;;;;;;;;;;;;;;25.72;50.62;101371.50;5076683;28;20006;-37
2022/06/29 09:55:34;;;;;;;;;;;;;;;25.79;47.75;101368.28;5076259;28;19920;-37
2022/06/29 09:58:00;;;;;;;;;;;;;;;25.89;49.97;101376.28;5075820;28;20011;-37
2022/06/29 10:03:11;;;;;;;;;;;;;;;26.26;48.32;101372.13;5076148;28;19965;-37
2022/06/29 10:05:54;;;;;;;;;;;;;;;26.42;45.39;101365.00;5076444;28;19919;-37
2022/06/29 10:08:19;;;;;;;;;;;;;;;26.54;46.50;101358.78;5075600;28;20417;-37
2022/06/29 10:10:46;;;;;;;;;;;;;;;26.65;44.68;101356.53;5075736;28;20011;-37
2022/06/29 10:13:39;;;;;;;;;;;;;;;26.75;43.37;101358.97;5076561;28;19952;-37
2022/06/29 10:16:08;;;;;;;;;;;;;;;26.86;46.14;101362.22;5076148;28;19920;-37
2022/06/29 10:18:48;;;;;;;;;;;;;;;27.00;46.30;101364.78;5075366;28;19912;-37
2022/06/29 10:21:16;;;;;;;;;;;;;;;27.09;44.00;101351.75;5076062;28;20375;-37
2022/06/29 10:23:52;;;;;;;;;;;;;;;27.11;42.97;101350.25;5075734;28;20421;-37
2022/06/29 10:28:55;;;;;;;;;;;;;;;27.28;43.08;101354.13;5075546;28;19912;-37
2022/06/29 10:31:38;;;;;;;;;;;;;;;27.39;44.70;101347.06;5076181;28;19913;-37
2022/06/29 10:34:24;;;;;;;;;;;;;;;27.43;43.73;101346.06;5075395;28;19912;-37
2022/06/29 10:37:11;;;;;;;;;;;;;;;27.52;42.59;101328.53;5074399;28;19912;-37
2022/06/29 10:39:43;;;;;;;;;;;;;;;27.61;40.58;101332.09;5075540;28;19912;-37
2022/06/29 10:45:14;;;;;;;;;;;;;;;27.75;40.32;101331.91;5075530;28;20304;-37
2022/06/29 10:47:44;;;;;;;;;;;;;;;27.68;42.00;101335.19;5075228;28;20312;-37
2022/06/29 10:50:24;;;;;;;;;;;;;;;27.66;38.22;101326.34;5074986;28;19912;-37
2022/06/29 10:52:53;;;;;;;;;;;;;;;27.58;39.52;101319.72;5074993;28;19912;-38
2022/06/29 10:55:18;;;;;;;;;;;;;;;27.84;41.54;101313.22;5074690;28;20441;-37
2022/06/29 10:57:44;;;;;;;;;;;;;;;28.01;41.48;101310.28;5074923;28;20003;-37
2022/06/29 11:00:18;;;;;;;;;;;;;;;27.92;41.78;101310.38;5074910;28;19916;-37
2022/06/29 11:02:44;;;;;;;;;;;;;;;27.86;39.30;101303.38;5075358;28;20000;-37
2022/06/29 11:05:09;;;;;;;;;;;;;;;27.84;41.20;101294.56;5075184;28;19952;-37
2022/06/29 11:13:03;;;;;;;;;;;;;;;27.12;40.97;101301.09;5074408;28;20383;-37
2022/06/29 11:15:40;;;;;;;;;;;;;;;26.96;39.46;101309.13;5074225;28;20008;-37
2022/06/29 11:18:10;;;;;;;;;;;;;;;26.81;41.58;101315.22;5074724;28;20002;-37
2022/06/29 11:20:36;;;;;;;;;;;;;;;26.68;41.55;101317.00;5074094;28;19947;-37
2022/06/29 11:23:01;;;;;;;;;;;;;;;26.66;42.11;101311.00;5074603;28;19916;-37
2022/06/29 11:25:34;;;;;;;;;;;;;;;26.67;42.68;101318.97;5074553;28;20315;-37
2022/06/29 11:27:59;;;;;;;;;;;;;;;26.65;42.81;101314.91;5074392;28;20357;-37
2022/06/29 11:30:24;;;;;;;;;;;;;;;26.59;42.80;101307.88;5074439;28;19912;-37
2022/06/29 11:32:50;;;;;;;;;;;;;;;26.56;43.60;101305.78;5074512;28;19924;-37
2022/06/29 11:35:25;;;;;;;;;;;;;;;26.57;40.76;101302.69;5074687;28;19912;-37
2022/06/29 11:37:51;;;;;;;;;;;;;;;26.72;42.01;101298.56;5078121;28;19912;-37
2022/06/29 11:40:19;;;;;;;;;;;;;;;26.91;42.31;101298.22;5074065;28;19919;-37
2022/06/29 11:45:45;;;;;;;;;;;;;;;26.92;43.28;101288.72;5074617;28;19919;-37
2022/06/29 11:48:14;;;;;;;;;;;;;;;26.96;43.92;101287.75;5074178;28;19958;-37
2022/06/29 11:50:53;;;;;;;;;;;;;;;26.99;42.57;101279.88;5073782;28;19920;-37
2022/06/29 11:53:37;;;;;;;;;;;;;;;26.90;41.08;101289.06;5073843;28;19912;-37
2022/06/29 11:56:06;;;;;;;;;;;;;;;27.03;43.32;101281.66;5073763;28;20027;-37
2022/06/29 11:58:32;;;;;;;;;;;;;;;27.43;42.98;101284.97;5074557;28;19912;-37
2022/06/29 12:00:57;;;;;;;;;;;;;;;27.74;41.91;101277.47;5072976;28;20331;-37
2022/06/29 12:03:22;;;;;;;;;;;;;;;28.14;41.00;101280.63;5074155;28;19956;-38
2022/06/29 12:05:57;;;;;;;;;;;;;;;28.49;39.84;101268.06;5073738;28;19913;-37
2022/06/29 12:08:23;;;;;;;;;;;;;;;28.53;38.80;101259.84;5074479;28;20273;-37
2022/06/29 12:10:48;;;;;;;;;;;;;;;28.43;39.36;101269.44;5073303;28;19912;-37
2022/06/29 12:13:13;;;;;;;;;;;;;;;28.67;39.91;101265.09;5073901;28;19920;-37
2022/06/29 12:15:38;;;;;;;;;;;;;;;28.99;39.62;101267.06;5073545;28;19919;-37
2022/06/29 12:18:03;;;;;;;;;;;;;;;29.22;38.33;101258.25;5073252;28;19912;-37
2022/06/29 12:20:29;;;;;;;;;;;;;;;29.42;39.29;101256.50;5073239;28;20011;-37
2022/06/29 12:22:54;;;;;;;;;;;;;;;29.58;38.32;101265.84;5074220;28;19913;-37
2022/06/29 12:25:22;;;;;;;;;;;;;;;29.64;37.87;101256.06;5073996;28;19912;-37
2022/06/29 12:27:47;;;;;;;;;;;;;;;29.79;37.78;101257.31;5073654;28;19912;-37
2022/06/29 12:30:12;;;;;;;;;;;;;;;29.83;37.65;101258.25;5073060;28;19912;-37
2022/06/29 12:32:38;;;;;;;;;;;;;;;29.83;36.46;101257.44;5073962;28;20011;-37
2022/06/29 12:35:03;;;;;;;;;;;;;;;29.71;38.09;101252.69;5073045;28;19913;-37
2022/06/29 12:37:28;;;;;;;;;;;;;;;29.59;36.69;101256.31;5073526;28;19912;-37
2022/06/29 12:39:54;;;;;;;;;;;;;;;29.44;36.49;101257.00;5073535;28;19913;-37
2022/06/29 12:42:21;;;;;;;;;;;;;;;29.27;37.91;101252.44;5073675;28;20018;-37
2022/06/29 12:44:46;;;;;;;;;;;;;;;29.04;36.55;101251.28;5072972;28;19912;-37
2022/06/29 12:47:11;;;;;;;;;;;;;;;28.81;38.41;101262.81;5074017;28;19923;-37
2022/06/29 12:49:37;;;;;;;;;;;;;;;28.60;37.74;101253.72;5073691;28;20249;-37
2022/06/29 12:52:02;;;;;;;;;;;;;;;28.73;38.49;101252.59;5072825;28;19918;-38
2022/06/29 12:54:27;;;;;;;;;;;;;;;29.03;38.95;101250.47;5073118;28;20292;-38